map of TLV home
TLV - Airport
Location
City:  Tel Aviv, Israel
Name:Ben Gurion
ICAO:LLBG
IATA:TLV

Details
Type:Airport (Aerodrome, Airfield)
Use:Public/Civil, International (customs port of entry)
Latitude:3200'41"N (32.011389)
Longitude:3453'12"E (34.886667)
Datum:WGS 1984
Elevation:135 ft (41 m)
Variation:4.73E (WMM2015 magnetic declination)
0.08 annual change
Runways:3
Longest:11998 × 148 ft (3657 × 45 m), paved

Time
Time Zone:UTC+2 (DST+3)
Local Time:

Weather
METAR:LLBG 212320Z 06004KT CAVOK 24/20 Q1014 NOSIG
TAF:LLBG 212302Z 2200/2224 09004KT 9999 FEW020
BECMG 2207/2209 30010KT CAVOK
BECMG 2214/2216 VRB03KT 9999 SCT018 TX32/2211Z TN21/2203Z

Related Locations
Nearby:
Farthest:RVV: 11850 mi / 19071 km
Raivavae, Tubuai Islands, Austral Islands, PF

Find:

   beyond  
but within

Other Information
Maps:
NOTAMs:
Links:
Sources:

  
  • flag of Israel
  

Airport Diagram

Airport diagram for TLV

Larger airport diagram (OBSOLETE) from NGA

Sectional Chart

Flight Planning
at skyvector.com

Satellite Image

Google Maps Satellite view

 

Copyright © 2004-2018 Karl L. Swartz. All rights reserved.
The Great Circle Mapper name and logo are trademarks of the Great Circle Mapper.
All other trademarks mentioned herein belong to their respective owners.
Please see credits for attibutions and further copyright information.

  Follow gcmap on Facebook Follow gcmap on Twitter Follow gcmap on Google+ GCmap on LinkedIn

hCard Microformat

Geo Microformat